logo
Search for airport 
image banner adimage banner adimage banner ad
image banner ad

LOLT - Seitenstetten

Located in District Amstetten, Austria

ICAO - LOLT, IATA -

Data provided by Airmate  

General information

Coordinates: N48°3'2" E14°39'43"
Elevation is 1050 feet MSL.
Magnetic variation is 5° East
Rated:
View ratings:
[VIEW]
View others Airports in Lower Austria

Operational data

Special qualification required
Current time UTC:
Current local time:
Weather at : LOWL - Linz ( 41 km )
METAR: LOWL 290820Z AUTO VRB02KT 9999 NCD 15/12 Q1018 NOSIG
TAF: TAF LOWL 290515Z 2906/3006 VRB02KT 0300 FG VV001 TX22/2914Z TN12/2906Z BECMG 2906/2908 9999 FEW040 TEMPO 2922/2924 SHRA FM300000 26004KT 9999 -RA FEW030 BKN050 TEMPO 3000/3006 SHRA
View NOTAMs / SUP AIP / TFR affecting this airport [VIEW]
Communications frequencies: [VIEW]

Runways:

RWY identifierQFULength (ft)Width (ft)SurfaceLDA (ft)
10272382GRASS
28272382GRASS

Airport contact information

Address: District Amstetten Austria

Other aviation service providers

Aviation club (not for profit)

Flugunion Seitenstetten-Biberbach

Flugunion Seitenstetten-Biberbach
Rated:
View ratings:
[VIEW]

Satellite view of LOLT